createdAt,value
2022-08-29T00:00:01.352Z,100895.00
2022-08-29T00:02:28.064Z,100899.47
2022-08-29T00:04:54.934Z,100903.94
2022-08-29T00:07:21.811Z,100897.50
2022-08-29T00:09:48.300Z,100904.56
2022-08-29T00:12:14.808Z,100903.13
2022-08-29T00:14:41.313Z,100905.06
2022-08-29T00:17:07.795Z,100899.75
2022-08-29T00:19:34.343Z,100905.81
2022-08-29T00:22:01.070Z,100905.00
2022-08-29T00:24:27.530Z,100901.00
2022-08-29T00:26:54.079Z,100898.72
2022-08-29T00:29:20.569Z,100902.69
2022-08-29T00:31:47.131Z,100901.50
2022-08-29T00:34:13.901Z,100898.63
2022-08-29T00:36:40.452Z,100897.94
2022-08-29T00:39:09.155Z,100895.94
2022-08-29T00:41:36.150Z,100900.16
2022-08-29T00:44:03.078Z,100901.75
2022-08-29T00:46:52.813Z,100893.13
2022-08-29T00:49:25.403Z,100907.31
2022-08-29T00:51:52.669Z,100910.19
2022-08-29T00:54:19.783Z,100914.94
2022-08-29T00:56:46.557Z,100914.25
2022-08-29T00:59:33.798Z,100914.56
2022-08-29T01:02:00.516Z,100916.97
2022-08-29T01:04:27.240Z,100914.25
2022-08-29T01:06:54.325Z,100914.69
2022-08-29T01:09:21.330Z,100919.31
2022-08-29T01:12:06.712Z,100916.59
2022-08-29T01:14:38.249Z,100917.94
2022-08-29T01:17:07.644Z,100914.41
2022-08-29T01:19:43.221Z,100922.88
2022-08-29T01:22:09.820Z,100921.28
2022-08-29T01:24:39.417Z,100922.88
2022-08-29T01:27:06.667Z,100925.50
2022-08-29T01:29:33.868Z,100930.31
2022-08-29T01:32:00.775Z,100928.50
2022-08-29T01:34:28.326Z,100930.16
2022-08-29T01:36:56.543Z,100939.03
2022-08-29T01:39:26.352Z,100931.59
2022-08-29T01:41:53.639Z,100935.53
2022-08-29T01:44:21.648Z,100935.03
2022-08-29T01:46:49.904Z,100931.81
2022-08-29T01:49:17.652Z,100942.19
2022-08-29T01:51:44.187Z,100930.22
2022-08-29T01:54:11.425Z,100939.47
2022-08-29T01:56:41.459Z,100935.47
2022-08-29T01:59:10.804Z,100935.97
2022-08-29T02:01:41.761Z,100937.88
2022-08-29T02:04:08.283Z,100943.91
2022-08-29T02:06:35.970Z,100943.91
2022-08-29T02:09:03.192Z,100946.72
2022-08-29T02:11:29.800Z,100943.13
2022-08-29T02:13:57.365Z,100947.03
2022-08-29T02:16:27.682Z,100948.13
2022-08-29T02:18:54.565Z,100946.03
2022-08-29T02:21:22.416Z,100949.53
2022-08-29T02:23:50.180Z,100956.41
2022-08-29T02:26:17.774Z,100956.97
2022-08-29T02:28:44.642Z,100954.75
2022-08-29T02:31:11.273Z,100957.97
2022-08-29T02:33:37.817Z,100966.03
2022-08-29T02:36:05.382Z,100951.75
2022-08-29T02:38:32.061Z,100958.78
2022-08-29T02:40:59.022Z,100959.31
2022-08-29T02:43:26.216Z,100947.31
2022-08-29T02:45:53.164Z,100957.28
2022-08-29T02:48:19.995Z,100952.53
2022-08-29T02:50:48.182Z,100955.88
2022-08-29T02:53:16.960Z,100958.16
2022-08-29T02:55:43.465Z,100952.91
2022-08-29T02:58:10.002Z,100953.72
2022-08-29T03:00:36.553Z,100957.53
2022-08-29T03:03:03.807Z,100955.31
2022-08-29T03:05:33.253Z,100951.53
2022-08-29T03:07:59.705Z,100962.75
2022-08-29T03:10:27.129Z,100961.94
2022-08-29T03:12:53.806Z,100960.94
2022-08-29T03:15:21.109Z,100960.72
2022-08-29T03:17:48.008Z,100954.22
2022-08-29T03:20:15.395Z,100953.69
2022-08-29T03:22:41.901Z,100953.97
2022-08-29T03:25:08.878Z,100950.72
2022-08-29T03:27:37.251Z,100954.56
2022-08-29T03:30:04.344Z,100954.44
2022-08-29T03:32:31.138Z,100948.78
2022-08-29T03:34:57.580Z,100943.44
2022-08-29T03:37:26.209Z,100945.34
2022-08-29T03:39:53.127Z,100950.19
2022-08-29T03:42:19.795Z,100953.41
2022-08-29T03:44:46.527Z,100950.78
2022-08-29T03:47:13.283Z,100949.16
2022-08-29T03:49:39.900Z,100942.72
2022-08-29T03:52:06.923Z,100954.16
2022-08-29T03:54:33.412Z,100951.94
2022-08-29T03:56:59.865Z,100953.97
2022-08-29T03:59:26.399Z,100953.22
2022-08-29T04:01:53.094Z,100950.75
2022-08-29T04:04:38.978Z,100947.72
2022-08-29T04:07:06.512Z,100944.47
2022-08-29T04:09:33.149Z,100941.25
2022-08-29T04:11:59.944Z,100943.56
2022-08-29T04:14:26.631Z,100938.22
2022-08-29T04:16:53.232Z,100939.81
2022-08-29T04:19:20.491Z,100946.63
2022-08-29T04:21:48.721Z,100951.84
2022-08-29T04:24:16.204Z,100947.22
2022-08-29T04:26:42.917Z,100948.25
2022-08-29T04:29:10.408Z,100946.88
2022-08-29T04:31:37.590Z,100950.66
2022-08-29T04:34:05.088Z,100961.66
2022-08-29T04:36:31.597Z,100954.78
2022-08-29T04:38:58.057Z,100972.78
2022-08-29T04:41:24.660Z,100972.78
2022-08-29T04:43:51.268Z,100970.00
2022-08-29T04:46:23.933Z,100973.00
2022-08-29T04:48:51.540Z,100971.63
2022-08-29T04:51:18.050Z,100967.03
2022-08-29T04:53:44.549Z,100971.03
2022-08-29T04:56:12.529Z,100971.25
2022-08-29T04:58:40.233Z,100981.75
2022-08-29T05:01:07.408Z,100978.28
2022-08-29T05:03:34.492Z,100974.69
2022-08-29T05:06:07.336Z,100979.22
2022-08-29T05:08:37.686Z,100984.72
2022-08-29T05:11:06.784Z,100991.09
2022-08-29T05:13:33.995Z,100974.75
2022-08-29T05:16:04.389Z,100979.78
2022-08-29T05:18:31.048Z,100981.84
2022-08-29T05:20:57.560Z,100989.09
2022-08-29T05:23:24.104Z,100991.50
2022-08-29T05:26:01.899Z,100992.53
2022-08-29T05:28:29.640Z,100994.13
2022-08-29T05:30:56.192Z,100993.84
2022-08-29T05:33:22.739Z,100994.75
2022-08-29T05:35:49.492Z,100990.31
2022-08-29T05:38:16.237Z,100994.97
2022-08-29T05:40:42.874Z,100986.50
2022-08-29T05:43:12.633Z,100988.53
2022-08-29T05:45:40.434Z,100994.97
2022-08-29T05:48:07.996Z,100995.47
2022-08-29T05:50:44.155Z,100999.09
2022-08-29T05:53:11.191Z,100999.09
2022-08-29T05:55:41.121Z,100995.69
2022-08-29T05:58:07.700Z,100995.63
2022-08-29T06:00:34.282Z,101003.66
2022-08-29T06:03:01.388Z,101002.16
2022-08-29T06:05:27.995Z,101006.06
2022-08-29T06:07:54.544Z,101014.72
2022-08-29T06:10:21.168Z,101007.06
2022-08-29T06:12:47.847Z,101000.03
2022-08-29T06:15:14.381Z,101017.31
2022-08-29T06:17:40.878Z,101009.06
2022-08-29T06:20:09.597Z,101015.69
2022-08-29T06:22:40.129Z,101005.63
2022-08-29T06:25:27.963Z,101016.69
2022-08-29T06:27:54.427Z,101012.97
2022-08-29T06:30:20.955Z,101019.50
2022-08-29T06:32:47.573Z,101015.09
2022-08-29T06:35:14.092Z,101013.91
2022-08-29T06:37:41.355Z,101023.53
2022-08-29T06:40:08.162Z,101020.53
2022-08-29T06:42:34.908Z,101026.38
2022-08-29T06:45:03.899Z,101025.78
2022-08-29T06:47:31.092Z,101030.44
2022-08-29T06:49:57.585Z,101026.00
2022-08-29T06:52:24.095Z,101023.84
2022-08-29T06:54:51.342Z,101024.22
2022-08-29T06:57:19.311Z,101025.19
2022-08-29T06:59:45.839Z,101028.75
2022-08-29T07:02:12.423Z,101017.44
2022-08-29T07:04:39.016Z,101037.22
2022-08-29T07:07:05.589Z,101030.13
2022-08-29T07:09:32.340Z,101030.22
2022-08-29T07:11:59.079Z,101032.44
2022-08-29T07:14:25.630Z,101036.66
2022-08-29T07:16:52.228Z,101041.03
2022-08-29T07:19:18.798Z,101037.00
2022-08-29T07:21:45.435Z,101033.47
2022-08-29T07:24:11.977Z,101039.09
2022-08-29T07:26:42.685Z,101037.50
2022-08-29T07:29:14.539Z,101037.34
2022-08-29T07:31:41.464Z,101035.09
2022-08-29T07:34:08.072Z,101040.94
2022-08-29T07:36:34.962Z,101040.56
2022-08-29T07:39:03.114Z,101044.13
2022-08-29T07:41:29.675Z,101035.91
2022-08-29T07:43:57.142Z,101037.44
2022-08-29T07:46:25.578Z,101039.25
2022-08-29T07:48:52.799Z,101047.00
2022-08-29T07:51:22.906Z,101041.44
2022-08-29T07:53:49.969Z,101050.59
2022-08-29T07:56:18.541Z,101045.19
2022-08-29T07:58:45.220Z,101036.97
2022-08-29T08:01:14.870Z,101044.19
2022-08-29T08:03:47.726Z,101051.94
2022-08-29T08:06:14.326Z,101049.94
2022-08-29T08:08:40.861Z,101045.56
2022-08-29T08:11:08.752Z,101044.56
2022-08-29T08:13:36.090Z,101053.22
2022-08-29T08:16:07.054Z,101049.81
2022-08-29T08:18:34.821Z,101047.88
2022-08-29T08:21:01.474Z,101050.81
2022-08-29T08:23:28.185Z,101041.84
2022-08-29T08:25:54.718Z,101048.16
2022-08-29T08:28:21.340Z,101051.69
2022-08-29T08:30:48.243Z,101043.97
2022-08-29T08:33:15.062Z,101035.97
2022-08-29T08:35:42.819Z,101046.75
2022-08-29T08:38:13.256Z,101044.53
2022-08-29T08:40:43.127Z,101039.00
2022-08-29T08:43:10.083Z,101047.19
2022-08-29T08:45:38.131Z,101051.50
2022-08-29T08:48:08.013Z,101036.31
2022-08-29T08:50:57.769Z,101034.19
2022-08-29T08:53:36.121Z,101037.34
2022-08-29T08:56:07.296Z,101033.97
2022-08-29T08:58:39.979Z,101027.50
2022-08-29T09:01:21.494Z,101030.44
2022-08-29T09:03:48.743Z,101029.75
2022-08-29T09:06:18.317Z,101041.91
2022-08-29T09:08:55.500Z,101042.06
2022-08-29T09:11:43.392Z,101035.28
2022-08-29T09:14:09.878Z,101043.47
2022-08-29T09:16:40.773Z,101040.03
2022-08-29T09:19:09.434Z,101045.16
2022-08-29T09:21:56.816Z,101046.50
2022-08-29T09:24:40.300Z,101042.16
2022-08-29T09:27:08.971Z,101043.19
2022-08-29T09:29:37.238Z,101035.63
2022-08-29T09:32:05.907Z,101028.72
2022-08-29T09:34:56.991Z,101026.44
2022-08-29T09:37:23.042Z,101036.78
2022-08-29T09:39:55.132Z,101021.13
2022-08-29T09:42:23.220Z,101022.69
2022-08-29T09:44:56.529Z,101015.94
2022-08-29T09:47:24.577Z,101015.28
2022-08-29T09:50:02.469Z,101019.25
2022-08-29T09:52:29.548Z,101022.53
2022-08-29T09:54:56.483Z,101023.53
2022-08-29T09:57:24.582Z,101011.09
2022-08-29T10:00:11.135Z,101005.25
2022-08-29T10:02:43.907Z,101003.09
2022-08-29T10:05:26.080Z,101001.97
2022-08-29T10:07:53.080Z,101004.09
2022-08-29T10:10:24.161Z,100998.38
2022-08-29T10:12:57.307Z,100995.69
2022-08-29T10:15:49.962Z,100997.16
2022-08-29T10:18:42.912Z,100989.38
2022-08-29T10:21:19.268Z,100989.38
2022-08-29T10:23:54.474Z,100984.22
2022-08-29T10:26:36.910Z,100982.53
2022-08-29T10:29:18.204Z,100974.78
2022-08-29T10:31:51.555Z,100971.06
2022-08-29T10:34:27.391Z,100978.78
2022-08-29T10:37:00.966Z,100969.09
2022-08-29T10:39:27.420Z,100962.03
2022-08-29T10:41:55.458Z,100965.22
2022-08-29T10:44:41.304Z,100958.28
2022-08-29T10:47:24.416Z,100955.81
2022-08-29T10:50:21.981Z,100951.03
2022-08-29T10:53:26.773Z,100952.41
2022-08-29T10:55:53.512Z,100941.38
2022-08-29T10:58:26.393Z,100948.59
2022-08-29T11:01:08.865Z,100940.69
2022-08-29T11:03:38.654Z,100938.41
2022-08-29T11:06:09.518Z,100929.28
2022-08-29T11:08:45.562Z,100920.53
2022-08-29T11:11:17.192Z,100917.13
2022-08-29T11:13:46.492Z,100907.44
2022-08-29T11:16:17.603Z,100916.25
2022-08-29T11:18:54.512Z,100907.88
2022-08-29T11:21:26.778Z,100905.03
2022-08-29T11:23:55.469Z,100894.09
2022-08-29T11:26:22.009Z,100892.88
2022-08-29T11:28:48.702Z,100896.16
2022-08-29T11:31:20.868Z,100900.28
2022-08-29T11:34:05.956Z,100891.38
2022-08-29T11:36:42.360Z,100887.06
2022-08-29T11:39:21.208Z,100892.09
2022-08-29T11:41:51.631Z,100879.22
2022-08-29T11:44:29.891Z,100880.66
2022-08-29T11:46:57.324Z,100867.22
2022-08-29T11:49:33.885Z,100872.97
2022-08-29T11:52:10.920Z,100872.22
2022-08-29T11:54:39.042Z,100872.47
2022-08-29T11:57:05.617Z,100872.00
2022-08-29T11:59:54.639Z,100855.84
2022-08-29T12:02:27.653Z,100849.28
2022-08-29T12:04:54.299Z,100855.69
2022-08-29T12:07:23.382Z,100853.66
2022-08-29T12:09:52.528Z,100841.06
2022-08-29T12:12:37.652Z,100842.00
2022-08-29T12:15:22.850Z,100842.25
2022-08-29T12:18:01.961Z,100842.59
2022-08-29T12:20:33.646Z,100844.09
2022-08-29T12:23:15.780Z,100832.41
2022-08-29T12:29:10.171Z,100844.88
2022-08-29T12:31:51.388Z,100833.75
2022-08-29T12:34:27.543Z,100846.50
2022-08-29T12:36:57.109Z,100844.47
2022-08-29T12:39:32.752Z,100840.75
2022-08-29T12:42:23.337Z,100837.00
2022-08-29T12:45:08.642Z,100840.59
2022-08-29T12:47:40.083Z,100838.69
2022-08-29T12:50:15.335Z,100828.59
2022-08-29T12:52:41.869Z,100821.69
2022-08-29T12:55:20.806Z,100836.97
2022-08-29T12:57:47.730Z,100825.31
2022-08-29T13:00:21.117Z,100821.34
2022-08-29T13:03:00.019Z,100815.88
2022-08-29T13:05:29.229Z,100824.81
2022-08-29T13:07:57.428Z,100817.28
2022-08-29T13:10:24.640Z,100809.81
2022-08-29T13:12:51.322Z,100814.81
2022-08-29T13:15:21.881Z,100810.31
2022-08-29T13:17:50.293Z,100802.00
2022-08-29T13:20:40.422Z,100804.00
2022-08-29T13:23:10.319Z,100800.03
2022-08-29T13:25:43.888Z,100807.19
2022-08-29T13:28:21.713Z,100805.63
2022-08-29T13:31:03.648Z,100802.44
2022-08-29T13:33:34.988Z,100798.09
2022-08-29T13:36:22.493Z,100802.44
2022-08-29T13:39:08.897Z,100797.66
2022-08-29T13:41:35.885Z,100792.88
2022-08-29T13:44:02.493Z,100807.16
2022-08-29T13:46:30.613Z,100809.09
2022-08-29T13:49:01.083Z,100800.03
2022-08-29T13:51:28.773Z,100794.50
2022-08-29T13:53:56.013Z,100794.56
2022-08-29T13:56:31.966Z,100793.00
2022-08-29T13:58:59.050Z,100794.59
2022-08-29T14:02:08.219Z,100789.44
2022-08-29T14:04:36.932Z,100781.94
2022-08-29T14:06:58.651Z,100778.34
2022-08-29T14:09:30.175Z,100777.16
2022-08-29T14:11:56.765Z,100784.69
2022-08-29T14:14:23.281Z,100778.72
2022-08-29T14:16:53.552Z,100778.75
2022-08-29T14:19:27.262Z,100772.00
2022-08-29T14:21:54.942Z,100765.25
2022-08-29T14:24:22.313Z,100771.19
2022-08-29T14:27:01.856Z,100768.81
2022-08-29T14:29:30.638Z,100770.38
2022-08-29T14:31:58.177Z,100761.63
2022-08-29T14:34:25.095Z,100760.47
2022-08-29T14:36:57.353Z,100763.63
2022-08-29T14:39:26.241Z,100755.34
2022-08-29T14:41:53.487Z,100757.75
2022-08-29T14:44:21.699Z,100754.94
2022-08-29T14:46:48.459Z,100753.00
2022-08-29T14:49:15.200Z,100759.31
2022-08-29T14:51:42.049Z,100750.19
2022-08-29T14:54:08.617Z,100747.00
2022-08-29T14:56:48.222Z,100755.72
2022-08-29T14:59:15.666Z,100743.06
2022-08-29T15:01:42.420Z,100743.84
2022-08-29T15:04:09.078Z,100743.09
2022-08-29T15:06:37.902Z,100743.88
2022-08-29T15:09:04.793Z,100737.13
2022-08-29T15:11:31.629Z,100737.53
2022-08-29T15:14:03.528Z,100731.22
2022-08-29T15:16:31.743Z,100736.38
2022-08-29T15:21:44.931Z,100728.03
2022-08-29T15:24:11.564Z,100734.00
2022-08-29T15:26:38.657Z,100728.44
2022-08-29T15:29:05.301Z,100721.31
2022-08-29T15:31:31.915Z,100728.84
2022-08-29T15:33:58.569Z,100724.47
2022-08-29T15:36:25.166Z,100717.75
2022-08-29T15:38:51.818Z,100717.75
2022-08-29T15:41:18.382Z,100720.88
2022-08-29T15:43:44.937Z,100716.06
2022-08-29T15:46:12.015Z,100716.06
2022-08-29T15:48:38.553Z,100716.84
2022-08-29T15:51:05.261Z,100711.31
2022-08-29T15:53:31.789Z,100714.47
2022-08-29T15:55:58.543Z,100722.31
2022-08-29T15:58:25.274Z,100713.59
2022-08-29T16:00:51.840Z,100717.53
2022-08-29T16:03:18.365Z,100713.50
2022-08-29T16:05:44.930Z,100715.47
2022-08-29T16:08:16.427Z,100711.84
2022-08-29T16:10:43.297Z,100718.88
2022-08-29T16:13:10.003Z,100706.97
2022-08-29T16:15:37.057Z,100711.28
2022-08-29T16:18:04.012Z,100708.44
2022-08-29T16:20:31.012Z,100703.63
2022-08-29T16:22:57.870Z,100706.75
2022-08-29T16:25:25.922Z,100704.38
2022-08-29T16:27:52.648Z,100708.34
2022-08-29T16:30:20.021Z,100705.06
2022-08-29T16:32:46.635Z,100706.97
2022-08-29T16:35:13.358Z,100704.94
2022-08-29T16:37:40.253Z,100700.84
2022-08-29T16:40:07.636Z,100704.63
2022-08-29T16:42:37.054Z,100705.34
2022-08-29T16:45:06.047Z,100710.38
2022-08-29T16:47:32.738Z,100710.72
2022-08-29T16:50:00.714Z,100713.06
2022-08-29T16:52:28.205Z,100702.69
2022-08-29T16:54:56.732Z,100717.50
2022-08-29T16:57:23.326Z,100711.44
2022-08-29T16:59:49.949Z,100710.94
2022-08-29T17:02:16.563Z,100706.91
2022-08-29T17:04:43.173Z,100706.72
2022-08-29T17:07:09.756Z,100708.63
2022-08-29T17:09:36.265Z,100700.28
2022-08-29T17:12:03.602Z,100700.13
2022-08-29T17:14:30.555Z,100706.28
2022-08-29T17:16:57.259Z,100706.97
2022-08-29T17:19:24.130Z,100704.06
2022-08-29T17:21:51.131Z,100704.31
2022-08-29T17:24:17.717Z,100710.06
2022-08-29T17:26:45.594Z,100714.28
2022-08-29T17:29:12.812Z,100714.88
2022-08-29T17:31:39.310Z,100722.59
2022-08-29T17:34:06.656Z,100712.66
2022-08-29T17:36:33.392Z,100716.94
2022-08-29T17:38:59.865Z,100718.50
2022-08-29T17:41:27.529Z,100725.53
2022-08-29T17:43:55.652Z,100727.78
2022-08-29T17:46:22.860Z,100725.25
2022-08-29T17:48:49.451Z,100720.78
2022-08-29T17:51:16.383Z,100732.03
2022-08-29T17:53:42.947Z,100728.88
2022-08-29T17:56:10.840Z,100733.50
2022-08-29T17:58:37.417Z,100740.03
2022-08-29T18:01:04.102Z,100741.03
2022-08-29T18:03:30.739Z,100741.69
2022-08-29T18:05:57.248Z,100736.81
2022-08-29T18:08:23.910Z,100746.94
2022-08-29T18:10:50.536Z,100741.31
2022-08-29T18:13:21.469Z,100748.97
2022-08-29T18:15:51.554Z,100754.25
2022-08-29T18:18:19.959Z,100756.13
2022-08-29T18:20:46.498Z,100755.97
2022-08-29T18:23:13.091Z,100758.47
2022-08-29T18:25:39.597Z,100767.34
2022-08-29T18:28:08.303Z,100768.34
2022-08-29T18:30:35.398Z,100768.88
2022-08-29T18:33:02.070Z,100771.88
2022-08-29T18:35:28.972Z,100773.28
2022-08-29T18:37:55.539Z,100772.63
2022-08-29T18:40:22.165Z,100774.75
2022-08-29T18:42:48.816Z,100777.41
2022-08-29T18:45:16.115Z,100783.41
2022-08-29T18:47:42.752Z,100786.50
2022-08-29T18:50:28.617Z,100784.38
2022-08-29T18:52:55.597Z,100797.06
2022-08-29T18:55:23.930Z,100803.09
2022-08-29T18:57:51.560Z,100798.28
2022-08-29T19:00:18.370Z,100811.09
2022-08-29T19:02:45.017Z,100818.41
2022-08-29T19:05:11.706Z,100809.59
2022-08-29T19:07:38.592Z,100813.84
2022-08-29T19:10:05.794Z,100817.31
2022-08-29T19:12:32.367Z,100814.78
2022-08-29T19:15:00.032Z,100820.06
2022-08-29T19:17:26.652Z,100825.44
2022-08-29T19:20:12.256Z,100820.66
2022-08-29T19:22:39.353Z,100822.94
2022-08-29T19:25:06.964Z,100830.59
2022-08-29T19:27:43.382Z,100821.81
2022-08-29T19:30:12.240Z,100832.22
2022-08-29T19:32:39.192Z,100833.34
2022-08-29T19:35:05.995Z,100834.06
2022-08-29T19:37:33.094Z,100829.94
2022-08-29T19:39:59.691Z,100843.84
2022-08-29T19:42:28.150Z,100838.59
2022-08-29T19:44:54.926Z,100843.63
2022-08-29T19:47:23.087Z,100842.03
2022-08-29T19:49:50.750Z,100846.34
2022-08-29T19:52:17.506Z,100838.84
2022-08-29T19:54:44.225Z,100837.09
2022-08-29T19:57:14.618Z,100838.47
2022-08-29T19:59:42.264Z,100834.47
2022-08-29T20:02:10.421Z,100841.78
2022-08-29T20:04:37.279Z,100837.44
2022-08-29T20:07:04.121Z,100838.81
2022-08-29T20:09:31.178Z,100841.88
2022-08-29T20:11:58.917Z,100840.28
2022-08-29T20:14:25.641Z,100843.38
2022-08-29T20:16:52.587Z,100852.72
2022-08-29T20:19:21.216Z,100846.66
2022-08-29T20:21:48.462Z,100853.50
2022-08-29T20:24:15.522Z,100845.16
2022-08-29T20:26:43.539Z,100853.25
2022-08-29T20:29:11.613Z,100847.19
2022-08-29T20:31:38.929Z,100849.47
2022-08-29T20:34:05.664Z,100846.91
2022-08-29T20:36:50.969Z,100848.38
2022-08-29T20:39:19.127Z,100847.22
2022-08-29T20:41:49.788Z,100845.97
2022-08-29T20:44:18.372Z,100851.22
2022-08-29T20:46:45.356Z,100847.31
2022-08-29T20:49:13.867Z,100854.41
2022-08-29T20:51:44.096Z,100855.53
2022-08-29T20:54:11.778Z,100857.47
2022-08-29T20:56:38.283Z,100850.28
2022-08-29T20:59:05.122Z,100857.09
2022-08-29T21:01:32.139Z,100859.38
2022-08-29T21:04:20.742Z,100863.25
2022-08-29T21:06:47.705Z,100863.25
2022-08-29T21:09:14.290Z,100854.59
2022-08-29T21:11:40.786Z,100864.38
2022-08-29T21:14:07.315Z,100863.25
2022-08-29T21:16:36.217Z,100863.91
2022-08-29T21:19:08.644Z,100868.25
2022-08-29T21:21:39.084Z,100871.91
2022-08-29T21:24:10.430Z,100874.13
2022-08-29T21:26:37.505Z,100872.41
2022-08-29T21:29:04.791Z,100869.25
2022-08-29T21:31:31.419Z,100869.34
2022-08-29T21:33:58.006Z,100863.44
2022-08-29T21:36:29.205Z,100865.94
2022-08-29T21:38:59.892Z,100866.75
2022-08-29T21:41:27.856Z,100868.22
2022-08-29T21:43:54.935Z,100865.00
2022-08-29T21:46:23.393Z,100865.00
2022-08-29T21:48:56.611Z,100865.72
2022-08-29T21:51:23.749Z,100864.44
2022-08-29T21:53:51.602Z,100866.13
2022-08-29T21:56:18.204Z,100866.81
2022-08-29T21:58:47.372Z,100870.41
2022-08-29T22:01:14.021Z,100870.41
2022-08-29T22:03:40.583Z,100872.97
2022-08-29T22:06:09.138Z,100875.38
2022-08-29T22:08:37.803Z,100862.00
2022-08-29T22:11:12.594Z,100877.47
2022-08-29T22:13:39.105Z,100871.94
2022-08-29T22:16:24.587Z,100872.84
2022-08-29T22:18:51.140Z,100867.25
2022-08-29T22:21:17.764Z,100865.84
2022-08-29T22:23:47.319Z,100873.13
2022-08-29T22:26:14.172Z,100868.78
2022-08-29T22:28:41.165Z,100873.31
2022-08-29T22:31:07.782Z,100879.16
2022-08-29T22:33:34.427Z,100876.72
2022-08-29T22:36:00.915Z,100883.47
2022-08-29T22:38:28.875Z,100881.34
2022-08-29T22:40:55.729Z,100885.81
2022-08-29T22:43:22.295Z,100886.25
2022-08-29T22:45:50.598Z,100877.44
2022-08-29T22:48:20.257Z,100880.72
2022-08-29T22:50:58.142Z,100881.13
2022-08-29T22:53:25.198Z,100878.31
2022-08-29T22:55:51.738Z,100873.38
2022-08-29T22:58:18.204Z,100881.78
2022-08-29T23:00:44.817Z,100874.56
2022-08-29T23:03:11.361Z,100877.69
2022-08-29T23:05:37.885Z,100882.38
2022-08-29T23:08:04.386Z,100879.84
2022-08-29T23:10:31.979Z,100882.63
2022-08-29T23:12:58.552Z,100876.06
2022-08-29T23:15:25.109Z,100876.75
2022-08-29T23:17:51.652Z,100874.00
2022-08-29T23:20:19.175Z,100873.53
2022-08-29T23:22:46.163Z,100866.19
2022-08-29T23:25:15.330Z,100865.88
2022-08-29T23:27:41.961Z,100869.56
2022-08-29T23:30:09.473Z,100869.25
2022-08-29T23:32:36.011Z,100870.06
2022-08-29T23:35:02.560Z,100871.81
2022-08-29T23:37:29.034Z,100873.28
2022-08-29T23:39:55.525Z,100871.66
2022-08-29T23:42:22.110Z,100873.13
2022-08-29T23:44:48.762Z,100867.53
2022-08-29T23:47:15.434Z,100875.25
2022-08-29T23:49:41.931Z,100875.25
2022-08-29T23:52:08.425Z,100872.03
2022-08-29T23:54:36.450Z,100871.09
2022-08-29T23:57:03.903Z,100867.88
2022-08-29T23:59:51.105Z,100864.81
